Time;durP1;ratioP1;P1;durP2;ratioP2;P2;SDS_P1;SDS_P2;PMS_P1;PMS_P2;Temp;Humidity;BMP_temperature;BMP_pressure;BME280_temperature;BME280_humidity;BME280_pressure;Samples;Min_cycle;Max_cycle;Signal;HPM_P1;HPM_P2
2024/02/21 02:20:16;;;;;;;6.35;3.30;;;8.30;99.90;;;;;;4339073;23;21806;-94
2024/02/21 02:22:48;;;;;;;4.88;3.13;;;8.10;99.90;;;;;;4938143;29;20271;-88
2024/02/21 02:25:14;;;;;;;9.43;3.25;;;11.20;99.90;;;;;;4921092;29;20217;-89
2024/02/21 02:27:44;;;;;;;4.97;2.67;;;8.40;99.90;;;;;;4925729;29;20182;-91
2024/02/21 02:30:11;;;;;;;5.38;3.10;;;9.60;99.90;;;;;;4928755;29;20194;-91
2024/02/21 02:32:37;;;;;;;7.25;3.05;;;8.70;99.90;;;;;;4928838;29;20260;-88
2024/02/21 02:35:02;;;;;;;4.67;2.90;;;7.20;99.90;;;;;;4928356;29;20956;-89
2024/02/21 02:37:28;;;;;;;6.23;2.80;;;8.80;99.90;;;;;;4935851;28;20168;-91
2024/02/21 02:39:54;;;;;;;5.10;3.07;;;;;;;;;;4927452;29;20480;-91
2024/02/21 02:42:19;;;;;;;6.70;3.17;;;8.40;99.90;;;;;;4932288;29;20182;-90
2024/02/21 03:03:20;;;;;;;5.18;3.30;;;8.60;99.90;;;;;;5302126;23;20260;-93
2024/02/21 03:05:46;;;;;;;6.82;3.15;;;10.80;99.90;;;;;;4943411;29;20232;-92
2024/02/21 03:08:22;;;;;;;4.97;3.13;;;10.30;99.90;;;;;;4963475;28;20207;-92
2024/02/21 03:10:57;;;;;;;5.50;3.35;;;8.60;99.90;;;;;;4959894;28;20178;-93
2024/02/21 03:13:23;;;;;;;5.15;3.50;;;9.80;99.90;;;;;;4957360;28;20232;-93
2024/02/21 03:15:49;;;;;;;5.63;3.80;;;;;;;;;;4947160;28;20197;-93
2024/02/21 03:18:18;;;;;;;5.50;3.33;;;8.30;99.90;;;;;;4977743;28;20753;-92
2024/02/21 03:20:55;;;;;;;6.40;3.60;;;7.00;99.90;;;;;;4961051;28;20181;-92
2024/02/21 03:23:49;;;;;;;4.65;3.33;;;8.50;99.90;;;;;;5149123;23;20247;-94
2024/02/21 03:26:41;;;;;;;3.40;3.10;;;8.70;99.90;;;;;;4944481;28;20236;-93
2024/02/21 03:29:14;;;;;;;7.45;3.20;;;8.50;99.90;;;;;;4979047;28;20195;-93
2024/02/21 05:40:02;;;;;;;2.10;1.90;;;7.70;99.90;;;;;;5639381;23;20225;-93
2024/02/21 05:43:08;;;;;;;5.15;2.80;;;7.70;99.90;;;;;;4956983;29;20186;-92
2024/02/21 05:45:37;;;;;;;4.10;2.90;;;9.50;99.90;;;;;;4940536;29;20222;-93
2024/02/21 05:48:26;;;;;;;5.13;3.20;;;7.90;99.90;;;;;;4908188;29;20210;-94
2024/02/21 05:51:11;;;;;;;4.75;3.00;;;8.40;99.90;;;;;;4922933;29;20178;-92
2024/02/21 05:53:40;;;;;;;6.75;3.10;;;8.10;99.90;;;;;;4930130;29;20190;-93
2024/02/21 05:56:14;;;;;;;4.70;2.92;;;7.70;99.90;;;;;;4944581;29;20190;-92
2024/02/21 05:58:49;;;;;;;4.80;3.20;;;;;;;;;;4926511;29;20216;-93
2024/02/21 06:01:20;;;;;;;4.25;2.70;;;7.60;99.90;;;;;;4907950;29;20200;-92
2024/02/21 06:04:01;;;;;;;5.25;3.50;;;8.90;99.90;;;;;;4913710;29;20259;-91
2024/02/21 06:06:31;;;;;;;5.70;2.90;;;7.50;99.90;;;;;;4919038;29;20289;-92
2024/02/21 06:09:03;;;;;;;4.65;3.35;;;9.90;99.90;;;;;;4930796;29;20178;-93
2024/02/21 06:11:30;;;;;;;4.15;3.25;;;;;;;;;;4913649;29;20193;-93
2024/02/21 06:13:56;;;;;;;4.50;2.60;;;;;;;;;;4927090;29;20183;-93
2024/02/21 06:16:22;;;;;;;5.80;3.72;;;7.60;99.90;;;;;;4918250;29;20190;-93
2024/02/21 06:18:48;;;;;;;4.43;3.27;;;;;;;;;;4934630;29;20201;-92
2024/02/21 06:21:19;;;;;;;5.05;4.55;;;7.10;99.90;;;;;;4912043;29;20273;-93
2024/02/21 06:23:48;;;;;;;3.58;3.17;;;8.50;99.90;;;;;;4916346;29;20182;-94
2024/02/21 06:26:18;;;;;;;8.13;4.20;;;7.30;99.90;;;;;;4917703;29;20214;-93
2024/02/21 06:28:47;;;;;;;6.72;3.83;;;8.00;99.90;;;;;;4937974;29;20166;-93
2024/02/21 06:31:22;;;;;;;;;;;;;;;;;;;;;
2024/02/21 06:33:49;;;;;;;7.03;3.17;;;7.20;99.90;;;;;;4922670;29;20209;-93
2024/02/21 06:36:23;;;;;;;3.20;2.90;;;7.30;99.90;;;;;;4931619;29;20224;-93
2024/02/21 06:38:58;;;;;;;5.50;3.17;;;;;;;;;;4916368;29;20181;-93
2024/02/21 06:41:37;;;;;;;;;;;;;;;;;;;;;
2024/02/21 06:44:25;;;;;;;5.10;3.38;;;7.30;99.90;;;;;;4940709;29;20198;-93
2024/02/21 06:47:11;;;;;;;;;;;;;;;;;;;;;
2024/02/21 06:49:38;;;;;;;7.50;3.08;;;;;;;;;;4932522;29;20206;-93
2024/02/21 06:52:16;;;;;;;4.13;3.63;;;7.20;99.90;;;;;;4927656;29;20194;-92
2024/02/21 06:54:46;;;;;;;4.68;2.80;;;;;;;;;;4935588;29;20284;-94
2024/02/21 06:57:17;;;;;;;3.55;3.25;;;7.00;99.90;;;;;;4921708;29;20186;-93
2024/02/21 07:00:26;;;;;;;4.55;3.15;;;7.10;99.90;;;;;;4931026;29;20197;-93
2024/02/21 07:06:17;;;;;;;3.88;2.83;;;;;;;;;;4905579;29;20372;-94
2024/02/21 07:08:43;;;;;;;6.82;3.95;;;7.50;99.90;;;;;;4896804;29;20217;-92
2024/02/21 07:11:08;;;;;;;3.63;2.70;;;8.40;99.90;;;;;;4917082;29;20194;-92
2024/02/21 07:13:34;;;;;;;4.80;2.80;;;;;;;;;;4923536;29;20238;-93
2024/02/21 07:16:00;;;;;;;3.65;2.50;;;;;;;;;;4912001;29;20216;-92
2024/02/21 07:18:27;;;;;;;3.88;2.47;;;;;;;;;;4914132;29;20190;-93
2024/02/21 07:20:52;;;;;;;7.00;2.63;;;7.90;99.90;;;;;;4893837;29;20206;-94
2024/02/21 07:36:15;;;;;;;3.53;2.30;;;8.40;99.90;;;;;;5913938;23;20310;-90
2024/02/21 07:38:56;;;;;;;5.95;3.30;;;8.80;99.90;;;;;;4959312;28;20232;-91
2024/02/21 08:05:35;;;;;;;5.82;3.03;;;9.80;99.90;;;;;;5127299;23;20238;-91
2024/02/21 08:08:00;;;;;;;5.88;2.90;;;9.60;99.90;;;;;;4954487;28;20711;-90
2024/02/21 08:10:27;;;;;;;4.03;2.93;;;11.30;99.90;;;;;;4949507;28;20209;-90
2024/02/21 08:12:52;;;;;;;6.00;3.08;;;10.10;99.90;;;;;;4955212;28;20200;-90
2024/02/21 08:15:18;;;;;;;4.33;2.47;;;;;;;;;;4938027;29;20371;-90
2024/02/21 08:17:44;;;;;;;4.95;2.92;;;10.40;98.70;;;;;;4943306;28;20246;-90
2024/02/21 08:20:10;;;;;;;5.40;2.50;;;12.60;99.90;;;;;;4941495;28;20333;-91
2024/02/21 08:22:38;;;;;;;7.05;3.40;;;10.70;99.50;;;;;;4942252;28;20222;-90
2024/02/21 08:25:05;;;;;;;4.10;3.13;;;11.00;99.30;;;;;;4943394;29;20311;-90
2024/02/21 08:30:54;;;;;;;7.18;2.92;;;10.80;98.60;;;;;;5312084;23;20227;-95
2024/02/21 08:33:25;;;;;;;6.30;2.97;;;10.80;99.80;;;;;;4966188;28;20204;-92
2024/02/21 08:42:06;;;;;;;4.43;2.88;;;11.60;98.70;;;;;;4919976;29;20564;-94
2024/02/21 08:44:32;;;;;;;5.28;2.30;;;;;;;;;;4882828;29;20297;-88
2024/02/21 08:47:03;;;;;;;5.63;3.00;;;11.50;96.10;;;;;;4938602;28;20318;-86
2024/02/21 08:49:52;;;;;;;4.05;2.40;;;12.70;97.10;;;;;;4963882;28;20203;-92
2024/02/21 08:57:26;;;;;;;5.95;2.25;;;11.30;95.40;;;;;;4960663;28;20215;-93
2024/02/21 08:59:55;;;;;;;5.03;2.85;;;13.90;97.10;;;;;;4950000;28;20653;-93
2024/02/21 09:02:20;;;;;;;3.17;2.15;;;11.70;95.50;;;;;;4955211;28;20192;-93
2024/02/21 09:04:46;;;;;;;5.67;2.83;;;;;;;;;;4961330;28;20256;-93
2024/02/21 09:07:12;;;;;;;4.93;2.42;;;11.80;95.10;;;;;;4965245;28;20203;-92
2024/02/21 09:09:40;;;;;;;2.97;2.03;;;13.40;96.80;;;;;;4957655;28;20212;-91
2024/02/21 09:12:07;;;;;;;2.53;2.10;;;12.80;95.20;;;;;;4967969;28;20196;-93
2024/02/21 09:14:33;;;;;;;4.17;2.00;;;12.10;95.90;;;;;;4947819;28;20296;-94
2024/02/21 09:20:29;;;;;;;3.58;2.10;;;12.50;92.90;;;;;;4901722;29;20250;-94
2024/02/21 09:23:00;;;;;;;4.72;2.60;;;14.80;95.90;;;;;;4951799;28;20197;-95
2024/02/21 09:25:29;;;;;;;3.20;2.08;;;12.00;93.80;;;;;;4955500;28;20212;-94
2024/02/21 09:27:55;;;;;;;6.05;2.30;;;12.40;92.60;;;;;;5741500;23;20191;-95
2024/02/21 09:30:21;;;;;;;3.97;2.20;;;13.10;94.40;;;;;;4950063;29;20212;-93
2024/02/21 09:32:48;;;;;;;5.20;2.13;;;12.80;92.30;;;;;;4953221;29;20189;-93
2024/02/21 09:35:27;;;;;;;4.70;2.05;;;14.40;93.70;;;;;;4942403;28;20235;-90
2024/02/21 09:37:53;;;;;;;6.90;2.20;;;13.30;92.90;;;;;;4926149;28;20606;-90
2024/02/21 09:40:31;;;;;;;3.93;2.27;;;;;;;;;;4938805;29;20177;-90
2024/02/21 09:43:06;;;;;;;3.78;2.13;;;13.30;91.20;;;;;;4953451;28;20440;-95
2024/02/21 09:45:33;;;;;;;4.78;2.20;;;14.10;89.50;;;;;;5023053;23;20265;-94
2024/02/21 10:06:34;;;;;;;4.15;2.20;;;15.80;79.00;;;;;;5665225;23;20213;-89
2024/02/21 10:09:01;;;;;;;4.32;2.30;;;17.40;82.70;;;;;;4930367;28;20214;-92
2024/02/21 10:28:11;;;;;;;6.82;2.70;;;15.90;79.50;;;;;;4935147;28;20327;-93
2024/02/21 10:37:09;;;;;;;7.22;2.50;;;16.00;77.30;;;;;;5596521;23;20344;-89
2024/02/21 10:39:41;;;;;;;4.60;1.95;;;16.40;78.30;;;;;;4937636;28;20189;-93
2024/02/21 10:42:31;;;;;;;2.22;1.73;;;16.30;76.60;;;;;;4939190;29;20196;-91
2024/02/21 10:45:00;;;;;;;3.33;2.45;;;13.90;73.30;;;;;;4938964;28;20193;-91
2024/02/21 11:02:18;;;;;;;2.75;1.50;;;15.50;75.50;;;;;;5911460;23;20246;-91
2024/02/21 11:04:46;;;;;;;5.40;2.50;;;16.10;78.20;;;;;;4966923;23;20248;-88
2024/02/21 11:07:32;;;;;;;6.22;2.42;;;15.50;76.80;;;;;;4961095;28;20229;-87
2024/02/21 11:09:59;;;;;;;3.50;2.25;;;15.70;77.40;;;;;;4954767;28;20188;-87
2024/02/21 11:15:47;;;;;;;3.10;1.75;;;15.20;76.30;;;;;;5302240;23;20338;-88
2024/02/21 11:18:23;;;;;;;4.43;1.92;;;15.50;77.30;;;;;;4936569;29;20208;-88
2024/02/21 11:20:52;;;;;;;4.20;2.00;;;15.00;75.50;;;;;;4934480;28;20185;-87
2024/02/21 11:23:27;;;;;;;2.88;2.17;;;16.00;76.00;;;;;;4935689;29;20297;-88
2024/02/21 11:26:07;;;;;;;2.08;1.80;;;15.80;76.30;;;;;;4940891;28;20212;-88
2024/02/21 11:28:32;;;;;;;2.53;1.90;;;16.50;76.10;;;;;;4948573;28;20201;-87
2024/02/21 11:31:08;;;;;;;4.07;3.33;;;16.10;75.60;;;;;;4939661;28;20197;-88
2024/02/21 11:33:34;;;;;;;3.35;1.88;;;15.90;74.60;;;;;;4932364;29;20231;-89
2024/02/21 11:36:04;;;;;;;2.60;1.55;;;16.00;73.80;;;;;;4935578;28;20213;-88
2024/02/21 11:38:29;;;;;;;2.35;1.80;;;16.30;73.50;;;;;;4930417;29;20189;-88
2024/02/21 11:40:55;;;;;;;4.40;1.80;;;16.20;73.10;;;;;;4948589;28;20184;-88
2024/02/21 11:43:20;;;;;;;4.57;2.10;;;16.00;73.60;;;;;;4941514;29;20196;-88
2024/02/21 11:45:46;;;;;;;2.10;1.30;;;16.20;74.00;;;;;;4950243;29;20239;-88
2024/02/21 11:48:12;;;;;;;2.17;1.60;;;15.90;71.70;;;;;;4951751;28;20192;-88
2024/02/21 11:50:39;;;;;;;1.70;1.43;;;17.20;72.50;;;;;;4935292;29;20185;-88
2024/02/21 11:53:05;;;;;;;2.50;1.90;;;16.30;69.30;;;;;;4949034;28;20554;-88
2024/02/21 11:55:58;;;;;;;2.00;1.30;;;16.40;69.20;;;;;;4937038;29;20309;-90
2024/02/21 11:58:26;;;;;;;3.80;2.22;;;16.20;69.90;;;;;;4939662;28;20889;-90
2024/02/21 12:00:52;;;;;;;2.10;1.90;;;15.40;71.40;;;;;;4939064;29;20185;-90
2024/02/21 12:03:18;;;;;;;2.65;1.77;;;16.00;71.60;;;;;;4933790;28;20263;-89
2024/02/21 12:05:46;;;;;;;4.20;1.87;;;15.50;74.20;;;;;;4932686;29;20220;-89
2024/02/21 12:08:15;;;;;;;3.17;1.70;;;16.10;73.50;;;;;;4937519;28;20272;-89
2024/02/21 12:10:44;;;;;;;1.65;1.17;;;15.90;71.60;;;;;;4948796;28;20584;-88
2024/02/21 12:13:10;;;;;;;3.83;1.50;;;17.00;71.80;;;;;;4932218;28;20291;-89
2024/02/21 12:15:35;;;;;;;3.65;1.67;;;15.50;71.70;;;;;;4932803;28;20204;-89
2024/02/21 12:18:04;;;;;;;1.80;1.33;;;17.40;74.00;;;;;;4928539;28;20199;-89
2024/02/21 12:20:36;;;;;;;2.45;1.65;;;17.10;73.30;;;;;;4932418;29;20190;-89
2024/02/21 12:23:01;;;;;;;2.58;1.40;;;15.70;66.20;;;;;;4920435;28;20197;-89
2024/02/21 12:25:30;;;;;;;2.30;1.60;;;15.10;67.70;;;;;;4935487;29;20209;-90
2024/02/21 12:27:56;;;;;;;3.30;2.40;;;15.70;69.90;;;;;;4939147;29;20240;-89
2024/02/21 12:30:22;;;;;;;6.60;1.65;;;16.40;72.00;;;;;;4936324;29;20589;-89
2024/02/21 12:32:49;;;;;;;2.90;1.47;;;15.60;68.30;;;;;;4938287;29;20323;-90
2024/02/21 12:35:14;;;;;;;3.35;1.20;;;15.00;65.60;;;;;;4922916;29;20249;-89
2024/02/21 12:37:41;;;;;;;2.10;1.43;;;15.50;65.60;;;;;;4935743;29;20669;-89
2024/02/21 12:40:08;;;;;;;4.50;1.40;;;15.70;65.70;;;;;;4939371;28;20678;-88
2024/02/21 12:42:34;;;;;;;2.17;1.42;;;15.40;65.40;;;;;;4934223;29;20837;-88
2024/02/21 12:45:00;;;;;;;2.13;1.60;;;15.30;65.20;;;;;;4938853;28;20224;-88
2024/02/21 12:48:10;;;;;;;4.15;1.60;;;15.60;66.90;;;;;;4963454;28;20616;-93
2024/02/21 12:50:36;;;;;;;1.70;1.40;;;15.40;64.20;;;;;;4946679;29;20180;-88
2024/02/21 12:53:02;;;;;;;1.73;1.53;;;16.10;67.70;;;;;;4941845;28;20213;-88
2024/02/21 12:55:28;;;;;;;2.13;1.92;;;15.90;66.90;;;;;;4939012;29;20212;-88
2024/02/21 12:57:53;;;;;;;2.57;1.20;;;15.70;66.10;;;;;;4947132;28;20428;-88
2024/02/21 13:00:21;;;;;;;3.00;1.40;;;13.70;65.40;;;;;;4948093;29;20187;-88
2024/02/21 13:02:47;;;;;;;1.80;1.20;;;16.70;65.50;;;;;;4945521;28;20204;-88
2024/02/21 13:05:13;;;;;;;1.65;1.35;;;16.00;65.30;;;;;;4945073;28;20232;-87
2024/02/21 13:07:38;;;;;;;1.60;1.27;;;16.50;64.90;;;;;;4947302;28;20277;-87
2024/02/21 13:10:05;;;;;;;2.50;1.07;;;16.60;65.10;;;;;;4938104;28;20188;-87
2024/02/21 13:12:30;;;;;;;3.75;1.58;;;15.80;63.70;;;;;;4935611;28;20185;-86
2024/02/21 13:14:56;;;;;;;3.13;1.50;;;16.00;64.20;;;;;;4938111;28;20263;-87
2024/02/21 13:17:22;;;;;;;2.70;1.93;;;16.00;63.60;;;;;;4934581;28;20668;-86
2024/02/21 13:19:47;;;;;;;1.70;1.30;;;15.60;64.20;;;;;;4928741;29;20193;-86
2024/02/21 13:22:13;;;;;;;2.07;1.60;;;16.00;64.70;;;;;;4935760;28;20463;-86
2024/02/21 13:24:39;;;;;;;1.53;1.10;;;15.30;65.80;;;;;;4933760;29;20193;-87
2024/02/21 13:27:04;;;;;;;2.17;1.00;;;15.50;63.80;;;;;;4940143;28;20200;-86
2024/02/21 13:29:30;;;;;;;1.70;1.17;;;15.60;62.20;;;;;;4947195;28;20212;-87
2024/02/21 13:31:55;;;;;;;3.43;1.50;;;15.80;61.90;;;;;;4944380;28;20271;-91
2024/02/21 13:34:21;;;;;;;1.83;1.47;;;15.50;61.20;;;;;;4935777;29;20250;-88
2024/02/21 13:36:48;;;;;;;4.20;1.87;;;15.80;62.20;;;;;;4936007;28;20315;-87
2024/02/21 13:39:15;;;;;;;2.75;1.75;;;15.70;60.70;;;;;;4933046;28;20233;-87
2024/02/21 13:41:42;;;;;;;2.42;1.25;;;15.70;62.90;;;;;;4933997;29;20185;-88
2024/02/21 13:44:09;;;;;;;3.15;1.35;;;15.60;60.40;;;;;;4919582;28;20681;-88
2024/02/21 13:46:35;;;;;;;1.90;1.30;;;15.70;62.70;;;;;;4936483;28;20690;-87
2024/02/21 13:49:08;;;;;;;4.60;2.50;;;15.70;63.60;;;;;;4935356;28;20197;-88
2024/02/21 13:51:37;;;;;;;3.67;1.33;;;16.70;64.90;;;;;;4938382;28;20557;-88
2024/02/21 13:54:04;;;;;;;1.75;1.15;;;15.70;63.40;;;;;;4943951;28;20185;-87
2024/02/21 13:56:30;;;;;;;2.42;1.40;;;15.70;62.60;;;;;;4950319;29;20680;-87
2024/02/21 13:58:58;;;;;;;1.63;1.08;;;16.00;63.40;;;;;;4950177;28;20187;-88
2024/02/21 14:01:24;;;;;;;2.47;1.10;;;15.00;61.20;;;;;;4946869;28;20216;-87
2024/02/21 14:03:50;;;;;;;1.70;1.10;;;15.70;62.90;;;;;;4922112;29;20184;-88
2024/02/21 14:06:17;;;;;;;1.80;1.10;;;15.10;63.10;;;;;;4939684;28;20709;-88
2024/02/21 14:08:42;;;;;;;2.15;1.13;;;15.50;64.30;;;;;;4936581;29;20281;-88
2024/02/21 14:11:08;;;;;;;1.90;1.30;;;17.50;65.40;;;;;;4934141;28;20193;-87
2024/02/21 14:13:34;;;;;;;1.60;1.07;;;16.50;63.30;;;;;;4931540;28;20281;-87
2024/02/21 14:16:01;;;;;;;1.60;1.00;;;17.10;64.10;;;;;;4934607;28;20241;-88
2024/02/21 14:18:27;;;;;;;1.73;0.90;;;15.60;61.40;;;;;;4936651;29;20604;-87
2024/02/21 14:20:53;;;;;;;2.20;1.30;;;15.20;61.70;;;;;;4932563;28;20216;-87
2024/02/21 14:23:19;;;;;;;2.50;1.47;;;15.20;62.30;;;;;;4932404;28;20294;-87
2024/02/21 14:25:44;;;;;;;1.73;1.20;;;15.30;62.90;;;;;;4933994;29;20289;-90
2024/02/21 14:28:10;;;;;;;2.23;1.10;;;15.60;63.50;;;;;;4946047;28;20180;-89
2024/02/21 14:30:36;;;;;;;2.03;1.10;;;16.10;64.40;;;;;;4941877;28;20224;-86
2024/02/21 14:33:01;;;;;;;1.33;1.03;;;16.50;65.50;;;;;;4943498;28;20185;-87
2024/02/21 14:35:28;;;;;;;4.43;1.70;;;15.40;64.30;;;;;;4989240;23;20256;-87
2024/02/21 14:37:57;;;;;;;1.80;1.00;;;14.80;62.60;;;;;;4942158;28;20188;-87
2024/02/21 14:40:22;;;;;;;2.22;1.30;;;16.30;63.10;;;;;;4939117;28;20208;-87
2024/02/21 14:42:48;;;;;;;1.87;1.70;;;15.00;62.80;;;;;;4940618;29;20189;-87
2024/02/21 14:45:17;;;;;;;2.63;1.60;;;17.10;64.80;;;;;;4949571;28;20280;-87
2024/02/21 14:47:42;;;;;;;2.30;1.50;;;17.30;63.00;;;;;;4951551;28;20228;-88
2024/02/21 14:50:09;;;;;;;2.55;1.40;;;15.70;61.90;;;;;;4958123;28;20212;-87
2024/02/21 14:52:36;;;;;;;1.00;0.90;;;15.70;62.40;;;;;;4959466;28;20188;-87
2024/02/21 14:55:02;;;;;;;1.35;1.20;;;16.90;62.40;;;;;;4944239;28;20209;-87
2024/02/21 14:57:28;;;;;;;2.03;1.23;;;15.40;61.00;;;;;;4967234;28;20284;-89
2024/02/21 14:59:56;;;;;;;1.87;1.40;;;15.20;60.40;;;;;;4945163;29;20201;-89
2024/02/21 15:02:23;;;;;;;4.18;1.85;;;14.90;60.90;;;;;;4944437;28;20193;-88
2024/02/21 15:04:51;;;;;;;2.55;1.20;;;15.20;60.00;;;;;;4945469;28;20172;-89
2024/02/21 15:07:17;;;;;;;2.10;1.30;;;15.20;60.80;;;;;;4948195;28;20197;-89
2024/02/21 15:09:43;;;;;;;4.67;2.07;;;15.50;61.10;;;;;;4942638;28;20200;-88
2024/02/21 15:12:09;;;;;;;3.80;1.13;;;15.10;63.00;;;;;;4959230;28;20523;-88
2024/02/21 15:14:35;;;;;;;2.03;1.42;;;15.70;63.30;;;;;;4941075;29;20202;-90
2024/02/21 15:17:01;;;;;;;1.77;1.40;;;14.90;61.70;;;;;;4945515;28;20591;-88
2024/02/21 15:19:26;;;;;;;1.30;1.20;;;15.90;62.10;;;;;;4929215;28;20197;-89
2024/02/21 15:21:53;;;;;;;2.57;2.37;;;15.20;63.00;;;;;;4936930;28;20192;-89
2024/02/21 15:24:19;;;;;;;2.85;1.67;;;15.30;64.10;;;;;;4951509;28;20173;-88
2024/02/21 15:26:45;;;;;;;2.17;1.20;;;15.10;66.40;;;;;;4960081;28;20266;-87
2024/02/21 15:29:10;;;;;;;1.83;1.27;;;15.30;66.40;;;;;;4946768;28;20197;-88
2024/02/21 15:31:37;;;;;;;1.50;1.40;;;15.10;66.40;;;;;;4946280;29;20252;-88
2024/02/21 15:34:03;;;;;;;2.30;1.38;;;15.10;66.30;;;;;;4943486;28;20216;-88
2024/02/21 15:36:28;;;;;;;2.17;1.47;;;14.50;65.70;;;;;;4946353;29;20220;-89
2024/02/21 15:38:54;;;;;;;2.33;1.60;;;15.00;67.70;;;;;;4953676;28;20173;-88
2024/02/21 15:41:21;;;;;;;2.47;1.40;;;15.00;69.30;;;;;;4924529;29;20208;-88
2024/02/21 15:43:47;;;;;;;2.22;1.60;;;15.10;69.60;;;;;;4949972;28;20509;-88
2024/02/21 15:46:13;;;;;;;4.27;2.10;;;15.10;70.00;;;;;;4950037;28;20225;-88
2024/02/21 15:48:38;;;;;;;1.95;1.80;;;15.10;71.10;;;;;;4936585;29;20189;-89
2024/02/21 15:51:05;;;;;;;2.03;1.60;;;14.90;71.00;;;;;;4923051;29;20223;-90
2024/02/21 15:53:32;;;;;;;2.67;1.98;;;14.40;71.10;;;;;;4919540;29;20185;-89
2024/02/21 15:55:57;;;;;;;4.18;2.33;;;14.50;71.70;;;;;;4950847;28;20281;-91
2024/02/21 15:58:24;;;;;;;1.83;1.50;;;14.80;73.80;;;;;;4942447;28;20227;-89
2024/02/21 16:00:51;;;;;;;2.22;1.55;;;14.80;72.80;;;;;;4962664;28;20300;-89
2024/02/21 16:03:16;;;;;;;5.40;1.65;;;14.40;72.90;;;;;;4957016;28;20217;-89
2024/02/21 16:05:42;;;;;;;3.30;2.10;;;14.70;74.10;;;;;;4959965;28;20196;-89
2024/02/21 16:08:09;;;;;;;3.07;2.17;;;14.80;75.00;;;;;;4946855;28;20181;-89
2024/02/21 16:10:35;;;;;;;2.72;1.70;;;14.30;74.80;;;;;;4934957;29;20506;-88
2024/02/21 16:13:00;;;;;;;3.53;2.00;;;14.50;75.30;;;;;;4934575;29;20186;-89
2024/02/21 16:15:26;;;;;;;5.33;3.73;;;14.20;74.70;;;;;;4936599;29;20352;-89
2024/02/21 16:17:51;;;;;;;4.63;2.00;;;14.30;75.30;;;;;;4942804;29;20392;-89
2024/02/21 16:20:20;;;;;;;3.90;1.90;;;14.40;75.80;;;;;;4943408;28;20185;-89
2024/02/21 16:22:46;;;;;;;3.47;1.55;;;14.10;75.90;;;;;;4920543;29;20707;-88
2024/02/21 16:25:12;;;;;;;2.40;1.60;;;14.60;76.50;;;;;;4955420;28;20283;-89
2024/02/21 16:27:40;;;;;;;1.65;1.50;;;14.50;77.10;;;;;;4943171;28;20585;-88
2024/02/21 16:30:07;;;;;;;7.88;2.10;;;14.00;76.80;;;;;;4941003;28;20195;-88
2024/02/21 16:32:34;;;;;;;2.95;2.20;;;14.00;77.90;;;;;;4945770;29;20208;-88
2024/02/21 16:35:00;;;;;;;3.88;2.80;;;14.40;78.40;;;;;;4942396;28;20229;-88
2024/02/21 16:37:25;;;;;;;4.00;2.47;;;13.80;77.80;;;;;;4940435;28;20216;-86
2024/02/21 16:39:52;;;;;;;2.17;1.97;;;13.90;79.60;;;;;;4942887;29;20211;-86
2024/02/21 16:42:18;;;;;;;2.97;1.95;;;14.00;79.50;;;;;;4946472;28;20260;-87
2024/02/21 16:44:43;;;;;;;6.73;2.17;;;14.50;80.00;;;;;;4949518;29;20204;-89
2024/02/21 16:47:09;;;;;;;3.30;2.23;;;14.00;79.10;;;;;;4927506;29;20209;-88
2024/02/21 16:49:34;;;;;;;2.73;1.70;;;15.80;81.90;;;;;;4950124;29;20698;-88
2024/02/21 16:52:00;;;;;;;5.50;2.80;;;15.30;82.20;;;;;;4956206;28;20173;-86
2024/02/21 16:54:25;;;;;;;2.93;1.93;;;14.60;81.70;;;;;;4953615;28;20216;-89
2024/02/21 16:56:51;;;;;;;2.40;1.93;;;13.80;80.50;;;;;;4953273;28;20228;-89
2024/02/21 16:59:17;;;;;;;3.13;2.00;;;12.90;80.00;;;;;;4941994;28;20227;-88
2024/02/21 17:01:44;;;;;;;4.88;1.95;;;15.40;83.80;;;;;;4955756;28;20563;-88
2024/02/21 17:04:11;;;;;;;6.93;2.08;;;14.50;83.90;;;;;;4938837;28;20189;-88
2024/02/21 17:06:36;;;;;;;2.88;2.10;;;14.30;83.70;;;;;;4934991;29;20239;-88
2024/02/21 17:09:03;;;;;;;2.07;1.87;;;14.70;85.40;;;;;;4938097;29;20185;-88
2024/02/21 17:11:29;;;;;;;3.75;2.35;;;12.90;84.20;;;;;;4933339;28;20682;-87
2024/02/21 17:13:55;;;;;;;2.80;1.93;;;13.60;86.40;;;;;;4936244;28;20189;-87
2024/02/21 17:16:20;;;;;;;4.07;2.47;;;14.40;87.60;;;;;;4930592;28;20547;-88
2024/02/21 17:18:46;;;;;;;3.20;2.27;;;12.70;86.20;;;;;;4934768;28;20453;-87
2024/02/21 17:21:12;;;;;;;4.20;2.90;;;13.70;88.30;;;;;;4933812;28;20529;-87
2024/02/21 17:23:39;;;;;;;6.55;3.92;;;12.30;85.50;;;;;;4935114;29;20180;-87
2024/02/21 17:26:07;;;;;;;4.88;3.45;;;13.30;87.20;;;;;;4934869;29;20210;-87
2024/02/21 17:28:32;;;;;;;4.90;3.22;;;13.20;88.40;;;;;;4934368;28;20188;-87
2024/02/21 17:30:58;;;;;;;6.47;3.80;;;13.90;89.70;;;;;;4934050;29;20181;-87
2024/02/21 17:33:24;;;;;;;2.80;2.33;;;14.60;90.80;;;;;;4934078;28;20266;-87
2024/02/21 17:35:49;;;;;;;5.00;2.67;;;15.00;90.40;;;;;;4935566;29;20573;-87
2024/02/21 17:38:18;;;;;;;5.87;3.10;;;14.30;90.10;;;;;;4934527;28;20320;-87
2024/02/21 17:40:44;;;;;;;2.92;2.40;;;13.60;89.40;;;;;;4935311;29;20673;-87
2024/02/21 17:43:10;;;;;;;3.50;2.57;;;12.10;88.50;;;;;;4935145;28;20224;-88
2024/02/21 17:45:36;;;;;;;3.08;2.10;;;14.60;90.70;;;;;;4931365;29;21244;-88
2024/02/21 17:48:02;;;;;;;3.10;2.40;;;12.30;88.40;;;;;;4930667;29;20185;-87
2024/02/21 17:50:28;;;;;;;4.35;3.45;;;12.80;90.00;;;;;;4936427;28;20774;-88
2024/02/21 17:52:54;;;;;;;5.20;3.60;;;14.10;91.00;;;;;;4934495;28;20319;-88
2024/02/21 17:55:20;;;;;;;3.87;2.57;;;13.10;90.70;;;;;;4933992;28;20215;-88
2024/02/21 17:57:49;;;;;;;2.88;2.30;;;13.00;88.70;;;;;;4931057;29;20193;-87
2024/02/21 18:00:16;;;;;;;3.80;2.83;;;12.90;88.20;;;;;;4934436;28;20592;-88
2024/02/21 18:02:42;;;;;;;5.65;2.85;;;13.00;88.50;;;;;;4935957;29;20616;-87
2024/02/21 18:05:07;;;;;;;6.07;4.10;;;12.40;89.40;;;;;;4934640;28;20225;-87
2024/02/21 18:07:34;;;;;;;2.77;2.27;;;12.90;90.00;;;;;;4934087;29;20779;-87
2024/02/21 18:09:59;;;;;;;4.28;2.63;;;13.20;88.80;;;;;;4937488;29;20188;-87
2024/02/21 18:12:25;;;;;;;2.80;2.20;;;13.30;88.20;;;;;;4936556;28;20192;-87
2024/02/21 18:14:52;;;;;;;3.70;2.47;;;12.80;88.50;;;;;;4954691;28;20185;-88
2024/02/21 18:17:17;;;;;;;5.75;3.30;;;13.30;89.60;;;;;;4953974;28;20236;-87
2024/02/21 18:19:43;;;;;;;6.97;2.95;;;12.70;90.10;;;;;;4951218;28;20285;-88
2024/02/21 18:22:09;;;;;;;4.73;3.20;;;12.90;89.40;;;;;;4932773;28;20185;-88
2024/02/21 18:24:35;;;;;;;4.43;2.50;;;13.10;88.40;;;;;;4933754;29;20263;-88
2024/02/21 18:27:00;;;;;;;5.77;2.90;;;13.20;89.10;;;;;;4931923;29;20220;-87
2024/02/21 18:29:27;;;;;;;5.53;3.10;;;12.80;88.90;;;;;;4933248;28;20184;-88
2024/02/21 18:31:53;;;;;;;6.32;3.30;;;13.10;88.70;;;;;;4934143;29;20251;-88
2024/02/21 18:34:19;;;;;;;3.30;3.00;;;12.50;88.10;;;;;;4935191;28;20244;-88
2024/02/21 18:36:46;;;;;;;3.97;2.60;;;12.70;86.90;;;;;;4932410;29;20227;-87
2024/02/21 18:39:12;;;;;;;2.60;2.10;;;12.70;83.30;;;;;;4937170;28;20196;-88
2024/02/21 18:41:40;;;;;;;6.70;2.30;;;12.60;79.10;;;;;;4916309;29;20193;-87
2024/02/21 18:44:06;;;;;;;4.85;2.40;;;12.90;80.00;;;;;;4934011;29;20213;-87
2024/02/21 18:46:33;;;;;;;2.90;2.27;;;12.80;80.20;;;;;;4931909;28;20240;-87
2024/02/21 18:48:59;;;;;;;3.42;2.83;;;12.90;78.00;;;;;;4933308;28;20453;-88
2024/02/21 18:52:05;;;;;;;2.30;2.10;;;12.60;77.60;;;;;;4928750;28;20197;-87
2024/02/21 18:54:38;;;;;;;4.30;2.58;;;15.00;79.90;;;;;;4945114;28;20212;-87
2024/02/21 18:57:16;;;;;;;2.58;1.83;;;13.20;77.60;;;;;;4944513;28;20220;-87
2024/02/21 18:59:44;;;;;;;2.22;1.95;;;14.80;78.00;;;;;;4945900;28;20185;-87
2024/02/21 19:02:09;;;;;;;4.85;2.22;;;12.70;77.00;;;;;;4929355;29;20185;-87
2024/02/21 19:04:37;;;;;;;3.73;2.13;;;12.00;75.20;;;;;;4933575;29;20216;-87
2024/02/21 19:07:03;;;;;;;4.68;2.67;;;14.30;76.70;;;;;;4926248;28;20597;-88
2024/02/21 19:09:29;;;;;;;3.17;2.15;;;13.30;75.70;;;;;;4930662;28;20454;-88
2024/02/21 19:11:54;;;;;;;3.13;2.10;;;14.90;76.60;;;;;;4930173;29;20181;-88
2024/02/21 19:14:20;;;;;;;4.43;2.10;;;14.20;75.30;;;;;;4910847;28;20221;-88
2024/02/21 19:16:46;;;;;;;2.88;1.75;;;14.80;75.60;;;;;;4928710;29;20294;-88
2024/02/21 19:19:12;;;;;;;3.20;2.10;;;13.80;73.00;;;;;;4930555;28;20219;-88
2024/02/21 19:21:38;;;;;;;2.07;1.70;;;14.70;76.10;;;;;;4931173;28;20256;-88
2024/02/21 19:24:03;;;;;;;2.10;1.90;;;14.00;73.50;;;;;;4933632;29;20197;-88
2024/02/21 19:26:29;;;;;;;2.75;1.63;;;13.20;72.60;;;;;;4950673;28;20684;-88
2024/02/21 19:28:55;;;;;;;2.10;1.80;;;13.40;73.80;;;;;;4938529;28;20208;-89
2024/02/21 19:31:20;;;;;;;2.70;1.90;;;14.60;75.00;;;;;;4936020;28;20192;-89
2024/02/21 19:33:46;;;;;;;3.03;2.07;;;13.50;73.90;;;;;;4936997;29;20196;-90
2024/02/21 19:36:15;;;;;;;3.03;2.13;;;13.60;74.10;;;;;;4934643;29;20224;-89
2024/02/21 19:38:41;;;;;;;2.90;2.15;;;13.10;73.90;;;;;;4937248;29;20202;-89
2024/02/21 19:41:07;;;;;;;2.40;2.20;;;13.20;74.10;;;;;;4940106;29;20252;-89
2024/02/21 19:43:33;;;;;;;2.90;2.10;;;13.40;74.80;;;;;;4955540;28;20628;-89
2024/02/21 19:45:59;;;;;;;1.90;1.70;;;12.90;73.10;;;;;;4937569;28;20205;-89
2024/02/21 19:48:24;;;;;;;4.30;1.97;;;13.00;72.90;;;;;;4939323;28;20700;-89